sensor_id;sensor_type;location;lat;lon;timestamp;pressure;altitude;pressure_sealevel;temperature;humidity
11710;BME280;5911;51.036;6.972;2023-06-19T00:00:17;100074.84;;;24.17;78.65
11710;BME280;5911;51.036;6.972;2023-06-19T00:02:47;100064.16;;;24.11;79.05
11710;BME280;5911;51.036;6.972;2023-06-19T00:05:15;100067.91;;;24.10;78.22
11710;BME280;5911;51.036;6.972;2023-06-19T00:07:43;100072.03;;;24.12;77.11
11710;BME280;5911;51.036;6.972;2023-06-19T00:10:10;100064.63;;;24.08;77.70
11710;BME280;5911;51.036;6.972;2023-06-19T00:12:38;100061.75;;;24.03;77.86
11710;BME280;5911;51.036;6.972;2023-06-19T00:15:09;100078.69;;;24.10;78.30
11710;BME280;5911;51.036;6.972;2023-06-19T00:17:37;100060.28;;;24.07;78.32
11710;BME280;5911;51.036;6.972;2023-06-19T00:20:09;100074.78;;;24.06;78.57
11710;BME280;5911;51.036;6.972;2023-06-19T00:22:40;100073.38;;;24.03;78.97
11710;BME280;5911;51.036;6.972;2023-06-19T00:25:18;100068.66;;;23.99;78.43
11710;BME280;5911;51.036;6.972;2023-06-19T00:27:46;100082.72;;;24.01;78.44
11710;BME280;5911;51.036;6.972;2023-06-19T00:30:16;100077.94;;;24.03;78.74
11710;BME280;5911;51.036;6.972;2023-06-19T00:32:45;100081.69;;;24.02;78.47
11710;BME280;5911;51.036;6.972;2023-06-19T00:35:16;100087.06;;;24.02;78.85
11710;BME280;5911;51.036;6.972;2023-06-19T00:37:51;100081.31;;;23.98;78.56
11710;BME280;5911;51.036;6.972;2023-06-19T00:40:26;100077.66;;;23.93;78.57
11710;BME280;5911;51.036;6.972;2023-06-19T00:42:55;100093.59;;;23.94;78.94
11710;BME280;5911;51.036;6.972;2023-06-19T00:45:24;100084.97;;;23.85;78.25
11710;BME280;5911;51.036;6.972;2023-06-19T00:47:53;100090.75;;;23.89;78.90
11710;BME280;5911;51.036;6.972;2023-06-19T00:50:24;100082.59;;;23.77;79.05
11710;BME280;5911;51.036;6.972;2023-06-19T00:52:55;100098.09;;;23.82;79.30
11710;BME280;5911;51.036;6.972;2023-06-19T00:55:25;100105.34;;;23.81;79.02
11710;BME280;5911;51.036;6.972;2023-06-19T00:57:53;100110.53;;;23.83;78.67
11710;BME280;5911;51.036;6.972;2023-06-19T01:00:24;100093.22;;;23.72;78.57
11710;BME280;5911;51.036;6.972;2023-06-19T01:02:52;100107.81;;;23.83;77.20
11710;BME280;5911;51.036;6.972;2023-06-19T01:05:20;100119.66;;;23.82;77.85
11710;BME280;5911;51.036;6.972;2023-06-19T01:07:58;100112.00;;;23.79;77.58
11710;BME280;5911;51.036;6.972;2023-06-19T01:10:40;100109.75;;;23.76;77.10
11710;BME280;5911;51.036;6.972;2023-06-19T01:13:17;100115.44;;;23.86;77.50
11710;BME280;5911;51.036;6.972;2023-06-19T01:15:49;100112.38;;;23.82;76.97
11710;BME280;5911;51.036;6.972;2023-06-19T01:18:21;100090.81;;;23.64;77.62
11710;BME280;5911;51.036;6.972;2023-06-19T01:20:49;100100.19;;;23.80;77.65
11710;BME280;5911;51.036;6.972;2023-06-19T01:23:19;100097.28;;;23.81;76.83
11710;BME280;5911;51.036;6.972;2023-06-19T01:25:46;100081.38;;;23.73;75.86
11710;BME280;5911;51.036;6.972;2023-06-19T01:28:14;100082.38;;;23.79;75.22
11710;BME280;5911;51.036;6.972;2023-06-19T01:30:42;100103.78;;;23.92;73.53
11710;BME280;5911;51.036;6.972;2023-06-19T01:33:14;100106.25;;;23.94;73.08
11710;BME280;5911;51.036;6.972;2023-06-19T01:35:47;100081.09;;;23.81;73.33
11710;BME280;5911;51.036;6.972;2023-06-19T01:38:17;100090.84;;;23.82;72.88
11710;BME280;5911;51.036;6.972;2023-06-19T01:40:48;100102.56;;;23.88;72.82
11710;BME280;5911;51.036;6.972;2023-06-19T01:43:18;100084.09;;;23.73;73.23
11710;BME280;5911;51.036;6.972;2023-06-19T01:45:47;100102.19;;;23.84;72.81
11710;BME280;5911;51.036;6.972;2023-06-19T01:48:15;100110.44;;;23.90;72.31
11710;BME280;5911;51.036;6.972;2023-06-19T01:50:45;100110.22;;;23.91;72.19
11710;BME280;5911;51.036;6.972;2023-06-19T01:53:13;100106.25;;;23.94;72.66
11710;BME280;5911;51.036;6.972;2023-06-19T01:55:41;100110.81;;;23.93;72.05
11710;BME280;5911;51.036;6.972;2023-06-19T01:58:10;100104.59;;;23.93;71.63
11710;BME280;5911;51.036;6.972;2023-06-19T02:00:38;100109.53;;;23.96;72.41
11710;BME280;5911;51.036;6.972;2023-06-19T02:03:05;100120.94;;;23.98;71.86
11710;BME280;5911;51.036;6.972;2023-06-19T02:05:33;100125.50;;;23.97;71.52
11710;BME280;5911;51.036;6.972;2023-06-19T02:08:08;100112.47;;;23.94;72.64
11710;BME280;5911;51.036;6.972;2023-06-19T02:10:36;100126.91;;;23.81;73.38
11710;BME280;5911;51.036;6.972;2023-06-19T02:13:03;100127.03;;;23.87;74.09
11710;BME280;5911;51.036;6.972;2023-06-19T02:15:33;100128.56;;;23.82;74.50
11710;BME280;5911;51.036;6.972;2023-06-19T02:18:00;100141.88;;;23.77;75.18
11710;BME280;5911;51.036;6.972;2023-06-19T02:20:28;100139.16;;;23.77;75.50
11710;BME280;5911;51.036;6.972;2023-06-19T02:22:56;100147.91;;;23.73;75.64
11710;BME280;5911;51.036;6.972;2023-06-19T02:25:24;100155.25;;;23.66;76.90
11710;BME280;5911;51.036;6.972;2023-06-19T02:27:52;100154.41;;;23.65;77.52
11710;BME280;5911;51.036;6.972;2023-06-19T02:30:20;100165.81;;;23.67;77.92
11710;BME280;5911;51.036;6.972;2023-06-19T02:32:50;100176.72;;;23.72;78.26
11710;BME280;5911;51.036;6.972;2023-06-19T02:35:18;100161.81;;;23.70;78.79
11710;BME280;5911;51.036;6.972;2023-06-19T02:37:47;100174.47;;;23.69;78.89
11710;BME280;5911;51.036;6.972;2023-06-19T02:40:14;100181.50;;;23.70;79.11
11710;BME280;5911;51.036;6.972;2023-06-19T02:42:42;100186.88;;;23.70;79.77
11710;BME280;5911;51.036;6.972;2023-06-19T02:45:10;100172.81;;;23.68;79.73
11710;BME280;5911;51.036;6.972;2023-06-19T02:47:38;100196.34;;;23.79;80.71
11710;BME280;5911;51.036;6.972;2023-06-19T02:50:07;100190.34;;;23.77;81.20
11710;BME280;5911;51.036;6.972;2023-06-19T02:52:35;100192.00;;;23.78;81.22
11710;BME280;5911;51.036;6.972;2023-06-19T02:55:04;100188.25;;;23.79;81.33
11710;BME280;5911;51.036;6.972;2023-06-19T02:57:34;100183.91;;;23.78;81.20
11710;BME280;5911;51.036;6.972;2023-06-19T03:00:02;100189.31;;;23.78;81.53
11710;BME280;5911;51.036;6.972;2023-06-19T03:02:32;100184.75;;;23.79;82.72
11710;BME280;5911;51.036;6.972;2023-06-19T03:05:00;100194.09;;;23.76;82.76
11710;BME280;5911;51.036;6.972;2023-06-19T03:07:29;100199.31;;;23.71;82.58
11710;BME280;5911;51.036;6.972;2023-06-19T03:09:57;100203.13;;;23.64;82.31
11710;BME280;5911;51.036;6.972;2023-06-19T03:12:25;100200.66;;;23.62;83.02
11710;BME280;5911;51.036;6.972;2023-06-19T03:14:53;100205.41;;;23.60;83.47
11710;BME280;5911;51.036;6.972;2023-06-19T03:17:22;100206.28;;;23.54;83.27
11710;BME280;5911;51.036;6.972;2023-06-19T03:19:50;100205.25;;;23.55;83.52
11710;BME280;5911;51.036;6.972;2023-06-19T03:22:19;100211.50;;;23.49;82.40
11710;BME280;5911;51.036;6.972;2023-06-19T03:24:49;100219.56;;;23.49;83.36
11710;BME280;5911;51.036;6.972;2023-06-19T03:27:20;100219.19;;;23.45;82.75
11710;BME280;5911;51.036;6.972;2023-06-19T03:29:48;100219.47;;;23.37;82.43
11710;BME280;5911;51.036;6.972;2023-06-19T03:32:23;100224.28;;;23.29;82.04
11710;BME280;5911;51.036;6.972;2023-06-19T03:34:51;100227.41;;;23.26;82.58
11710;BME280;5911;51.036;6.972;2023-06-19T03:37:19;100242.50;;;23.27;83.21
11710;BME280;5911;51.036;6.972;2023-06-19T03:39:49;100245.63;;;23.24;82.90
11710;BME280;5911;51.036;6.972;2023-06-19T03:42:17;100243.38;;;23.21;83.78
11710;BME280;5911;51.036;6.972;2023-06-19T03:44:45;100258.13;;;23.11;83.14
11710;BME280;5911;51.036;6.972;2023-06-19T03:47:16;100275.16;;;23.05;82.06
11710;BME280;5911;51.036;6.972;2023-06-19T03:49:44;100273.22;;;23.12;81.04
11710;BME280;5911;51.036;6.972;2023-06-19T03:52:12;100284.06;;;22.99;80.08
11710;BME280;5911;51.036;6.972;2023-06-19T03:54:39;100273.31;;;22.99;81.04
11710;BME280;5911;51.036;6.972;2023-06-19T03:57:09;100278.94;;;22.91;81.59
11710;BME280;5911;51.036;6.972;2023-06-19T03:59:37;100287.22;;;22.90;81.83
11710;BME280;5911;51.036;6.972;2023-06-19T04:02:05;100290.56;;;22.85;82.15
11710;BME280;5911;51.036;6.972;2023-06-19T04:04:32;100301.72;;;22.82;82.59
11710;BME280;5911;51.036;6.972;2023-06-19T04:07:00;100302.16;;;22.72;83.57
11710;BME280;5911;51.036;6.972;2023-06-19T04:09:29;100299.25;;;22.67;83.58
11710;BME280;5911;51.036;6.972;2023-06-19T04:11:56;100305.72;;;22.60;84.60
11710;BME280;5911;51.036;6.972;2023-06-19T04:14:26;100320.63;;;22.56;85.34
11710;BME280;5911;51.036;6.972;2023-06-19T04:16:56;100321.84;;;22.53;85.73
11710;BME280;5911;51.036;6.972;2023-06-19T04:19:26;100321.66;;;22.55;86.29
11710;BME280;5911;51.036;6.972;2023-06-19T04:21:56;100327.22;;;22.60;86.41
11710;BME280;5911;51.036;6.972;2023-06-19T04:24:24;100324.53;;;22.60;86.49
11710;BME280;5911;51.036;6.972;2023-06-19T04:26:51;100332.41;;;22.48;87.53
11710;BME280;5911;51.036;6.972;2023-06-19T04:29:20;100334.88;;;22.50;88.32
11710;BME280;5911;51.036;6.972;2023-06-19T04:31:49;100338.19;;;22.58;88.38
11710;BME280;5911;51.036;6.972;2023-06-19T04:34:18;100338.38;;;22.63;88.65
11710;BME280;5911;51.036;6.972;2023-06-19T04:36:47;100331.34;;;22.62;88.98
11710;BME280;5911;51.036;6.972;2023-06-19T04:39:15;100342.75;;;22.58;89.88
11710;BME280;5911;51.036;6.972;2023-06-19T04:41:43;100343.78;;;22.57;90.15
11710;BME280;5911;51.036;6.972;2023-06-19T04:44:11;100341.28;;;22.55;89.96
11710;BME280;5911;51.036;6.972;2023-06-19T04:46:39;100346.47;;;22.57;90.64
11710;BME280;5911;51.036;6.972;2023-06-19T04:49:08;100348.13;;;22.51;90.73
11710;BME280;5911;51.036;6.972;2023-06-19T04:51:40;100348.53;;;22.48;91.58
11710;BME280;5911;51.036;6.972;2023-06-19T04:54:08;100344.59;;;22.51;90.84
11710;BME280;5911;51.036;6.972;2023-06-19T04:56:36;100342.75;;;22.51;90.98
11710;BME280;5911;51.036;6.972;2023-06-19T04:59:03;100342.94;;;22.50;91.50
11710;BME280;5911;51.036;6.972;2023-06-19T05:01:31;100347.28;;;22.51;91.27
11710;BME280;5911;51.036;6.972;2023-06-19T05:03:59;100346.88;;;22.54;91.41
11710;BME280;5911;51.036;6.972;2023-06-19T05:06:28;100355.19;;;22.45;92.05
11710;BME280;5911;51.036;6.972;2023-06-19T05:08:56;100340.88;;;22.52;91.86
11710;BME280;5911;51.036;6.972;2023-06-19T05:11:23;100348.53;;;22.55;92.20
11710;BME280;5911;51.036;6.972;2023-06-19T05:13:51;100359.69;;;22.65;92.16
11710;BME280;5911;51.036;6.972;2023-06-19T05:16:19;100359.06;;;22.63;92.05
11710;BME280;5911;51.036;6.972;2023-06-19T05:18:47;100361.97;;;22.55;92.10
11710;BME280;5911;51.036;6.972;2023-06-19T05:21:15;100364.25;;;22.58;92.65
11710;BME280;5911;51.036;6.972;2023-06-19T05:23:44;100377.06;;;22.69;92.67
11710;BME280;5911;51.036;6.972;2023-06-19T05:26:13;100372.94;;;22.60;92.11
11710;BME280;5911;51.036;6.972;2023-06-19T05:28:42;100372.94;;;22.60;91.84
11710;BME280;5911;51.036;6.972;2023-06-19T05:31:09;100364.63;;;22.74;91.95
11710;BME280;5911;51.036;6.972;2023-06-19T05:33:37;100365.03;;;22.85;91.69
11710;BME280;5911;51.036;6.972;2023-06-19T05:36:05;100361.53;;;22.91;92.02
11710;BME280;5911;51.036;6.972;2023-06-19T05:38:33;100368.34;;;22.87;91.24
11710;BME280;5911;51.036;6.972;2023-06-19T05:41:02;100364.78;;;22.93;91.51
11710;BME280;5911;51.036;6.972;2023-06-19T05:43:30;100360.06;;;22.88;90.85
11710;BME280;5911;51.036;6.972;2023-06-19T05:45:58;100372.50;;;22.76;90.87
11710;BME280;5911;51.036;6.972;2023-06-19T05:48:26;100363.41;;;22.77;91.12
11710;BME280;5911;51.036;6.972;2023-06-19T05:50:54;100376.63;;;22.72;91.33
11710;BME280;5911;51.036;6.972;2023-06-19T05:53:21;100379.53;;;22.77;91.21
11710;BME280;5911;51.036;6.972;2023-06-19T05:55:49;100378.28;;;22.73;89.86
11710;BME280;5911;51.036;6.972;2023-06-19T05:58:18;100378.69;;;22.76;90.29
11710;BME280;5911;51.036;6.972;2023-06-19T06:00:47;100393.19;;;22.82;88.68
11710;BME280;5911;51.036;6.972;2023-06-19T06:03:16;100387.59;;;22.70;88.86
11710;BME280;5911;51.036;6.972;2023-06-19T06:05:43;100390.69;;;22.80;87.99
11710;BME280;5911;51.036;6.972;2023-06-19T06:08:15;100403.31;;;22.80;86.48
11710;BME280;5911;51.036;6.972;2023-06-19T06:10:43;100398.97;;;22.79;86.83
11710;BME280;5911;51.036;6.972;2023-06-19T06:13:11;100398.56;;;22.82;85.34
11710;BME280;5911;51.036;6.972;2023-06-19T06:15:40;100409.31;;;22.89;84.78
11710;BME280;5911;51.036;6.972;2023-06-19T06:18:08;100411.78;;;22.97;83.88
11710;BME280;5911;51.036;6.972;2023-06-19T06:20:35;100399.75;;;23.06;83.22
11710;BME280;5911;51.036;6.972;2023-06-19T06:23:03;100388.53;;;23.15;82.54
11710;BME280;5911;51.036;6.972;2023-06-19T06:25:31;100395.56;;;23.17;81.40
11710;BME280;5911;51.036;6.972;2023-06-19T06:27:59;100399.94;;;23.11;80.57
11710;BME280;5911;51.036;6.972;2023-06-19T06:30:27;100400.13;;;23.09;79.83
11710;BME280;5911;51.036;6.972;2023-06-19T06:32:56;100389.81;;;23.06;80.67
11710;BME280;5911;51.036;6.972;2023-06-19T06:35:24;100391.03;;;23.10;79.78
11710;BME280;5911;51.036;6.972;2023-06-19T06:37:52;100395.00;;;23.01;80.12
11710;BME280;5911;51.036;6.972;2023-06-19T06:40:20;100403.09;;;22.95;80.22
11710;BME280;5911;51.036;6.972;2023-06-19T06:42:48;100412.19;;;22.94;80.46
11710;BME280;5911;51.036;6.972;2023-06-19T06:45:16;100417.19;;;22.90;79.72
11710;BME280;5911;51.036;6.972;2023-06-19T06:47:44;100412.41;;;22.92;80.64
11710;BME280;5911;51.036;6.972;2023-06-19T06:50:13;100420.25;;;23.00;80.36
11710;BME280;5911;51.036;6.972;2023-06-19T06:52:41;100430.59;;;23.03;80.53
11710;BME280;5911;51.036;6.972;2023-06-19T06:55:09;100435.75;;;23.11;81.06
11710;BME280;5911;51.036;6.972;2023-06-19T06:57:37;100434.91;;;23.11;79.80
11710;BME280;5911;51.036;6.972;2023-06-19T07:00:06;100429.13;;;23.07;79.77
11710;BME280;5911;51.036;6.972;2023-06-19T07:02:37;100448.56;;;23.16;80.21
11710;BME280;5911;51.036;6.972;2023-06-19T07:05:07;100437.41;;;23.12;79.98
11710;BME280;5911;51.036;6.972;2023-06-19T07:07:37;100448.16;;;23.12;79.17
11710;BME280;5911;51.036;6.972;2023-06-19T07:10:05;100446.31;;;23.13;79.53
11710;BME280;5911;51.036;6.972;2023-06-19T07:12:33;100446.72;;;23.17;79.31
11710;BME280;5911;51.036;6.972;2023-06-19T07:15:01;100450.66;;;23.21;78.78
11710;BME280;5911;51.036;6.972;2023-06-19T07:17:30;100443.59;;;23.20;77.67
11710;BME280;5911;51.036;6.972;2023-06-19T07:19:58;100445.03;;;23.22;78.95
11710;BME280;5911;51.036;6.972;2023-06-19T07:22:26;100445.47;;;23.19;78.73
11710;BME280;5911;51.036;6.972;2023-06-19T07:24:55;100440.25;;;23.24;79.08
11710;BME280;5911;51.036;6.972;2023-06-19T07:27:23;100440.88;;;23.26;78.34
11710;BME280;5911;51.036;6.972;2023-06-19T07:29:54;100445.63;;;23.31;78.15
11710;BME280;5911;51.036;6.972;2023-06-19T07:32:21;100450.75;;;23.45;78.08
11710;BME280;5911;51.036;6.972;2023-06-19T07:34:49;100442.03;;;23.57;77.98
11710;BME280;5911;51.036;6.972;2023-06-19T07:37:17;100454.44;;;23.64;77.55
11710;BME280;5911;51.036;6.972;2023-06-19T07:39:45;100446.34;;;23.64;76.94
11710;BME280;5911;51.036;6.972;2023-06-19T07:42:15;100448.44;;;23.62;76.61
11710;BME280;5911;51.036;6.972;2023-06-19T07:44:43;100439.34;;;23.50;76.22
11710;BME280;5911;51.036;6.972;2023-06-19T07:47:11;100452.38;;;23.60;77.21
11710;BME280;5911;51.036;6.972;2023-06-19T07:49:40;100462.75;;;23.56;77.58
11710;BME280;5911;51.036;6.972;2023-06-19T07:52:08;100449.69;;;23.53;78.01
11710;BME280;5911;51.036;6.972;2023-06-19T07:54:47;100444.31;;;23.53;78.99
11710;BME280;5911;51.036;6.972;2023-06-19T07:57:17;100453.41;;;23.65;79.80
11710;BME280;5911;51.036;6.972;2023-06-19T07:59:45;100464.59;;;23.62;79.31
11710;BME280;5911;51.036;6.972;2023-06-19T08:02:14;100470.44;;;23.53;79.17
11710;BME280;5911;51.036;6.972;2023-06-19T08:04:42;100460.91;;;23.50;79.14
11710;BME280;5911;51.036;6.972;2023-06-19T08:07:10;100466.28;;;23.50;79.99
11710;BME280;5911;51.036;6.972;2023-06-19T08:09:38;100460.06;;;23.56;80.29
11710;BME280;5911;51.036;6.972;2023-06-19T08:12:07;100457.56;;;23.61;80.96
11710;BME280;5911;51.036;6.972;2023-06-19T08:14:36;100466.25;;;23.63;80.71
11710;BME280;5911;51.036;6.972;2023-06-19T08:17:05;100463.38;;;23.58;79.91
11710;BME280;5911;51.036;6.972;2023-06-19T08:19:33;100468.56;;;23.53;79.53
11710;BME280;5911;51.036;6.972;2023-06-19T08:22:01;100452.63;;;23.52;80.55
11710;BME280;5911;51.036;6.972;2023-06-19T08:24:29;100460.72;;;23.52;81.05
11710;BME280;5911;51.036;6.972;2023-06-19T08:26:56;100475.38;;;23.56;80.71
11710;BME280;5911;51.036;6.972;2023-06-19T08:29:25;100478.53;;;23.53;80.85
11710;BME280;5911;51.036;6.972;2023-06-19T08:31:54;100467.97;;;23.51;81.28
11710;BME280;5911;51.036;6.972;2023-06-19T08:34:21;100462.53;;;23.58;81.60
11710;BME280;5911;51.036;6.972;2023-06-19T08:36:49;100460.03;;;23.63;80.65
11710;BME280;5911;51.036;6.972;2023-06-19T08:39:17;100463.13;;;23.66;80.96
11710;BME280;5911;51.036;6.972;2023-06-19T08:41:46;100454.38;;;23.77;81.43
11710;BME280;5911;51.036;6.972;2023-06-19T08:44:14;100458.88;;;23.83;80.35
11710;BME280;5911;51.036;6.972;2023-06-19T08:46:42;100464.72;;;23.80;78.68
11710;BME280;5911;51.036;6.972;2023-06-19T08:49:11;100476.78;;;23.71;77.41
11710;BME280;5911;51.036;6.972;2023-06-19T08:51:40;100473.28;;;23.64;75.91
11710;BME280;5911;51.036;6.972;2023-06-19T08:54:08;100473.25;;;23.71;75.44
11710;BME280;5911;51.036;6.972;2023-06-19T08:56:39;100485.88;;;23.70;76.54
11710;BME280;5911;51.036;6.972;2023-06-19T08:59:10;100486.50;;;23.72;76.60
11710;BME280;5911;51.036;6.972;2023-06-19T09:01:38;100482.78;;;23.73;75.78
11710;BME280;5911;51.036;6.972;2023-06-19T09:04:12;100476.13;;;23.76;76.71
11710;BME280;5911;51.036;6.972;2023-06-19T09:06:47;100478.97;;;23.88;74.11
11710;BME280;5911;51.036;6.972;2023-06-19T09:09:16;100478.94;;;23.94;73.31
11710;BME280;5911;51.036;6.972;2023-06-19T09:11:56;100475.81;;;23.97;72.77
11710;BME280;5911;51.036;6.972;2023-06-19T09:14:30;100474.13;;;24.03;73.79
11710;BME280;5911;51.036;6.972;2023-06-19T09:16:58;100472.22;;;24.10;73.66
11710;BME280;5911;51.036;6.972;2023-06-19T09:19:27;100484.88;;;24.09;73.11
11710;BME280;5911;51.036;6.972;2023-06-19T09:21:59;100496.72;;;24.02;71.15
11710;BME280;5911;51.036;6.972;2023-06-19T09:24:33;100489.66;;;24.01;70.82
11710;BME280;5911;51.036;6.972;2023-06-19T09:27:06;100487.16;;;24.06;71.16
11710;BME280;5911;51.036;6.972;2023-06-19T09:29:36;100490.88;;;24.11;70.84
11710;BME280;5911;51.036;6.972;2023-06-19T09:32:17;100482.09;;;24.23;71.26
11710;BME280;5911;51.036;6.972;2023-06-19T09:34:48;100492.63;;;24.31;71.07
11710;BME280;5911;51.036;6.972;2023-06-19T09:37:21;100500.34;;;24.27;70.11
11710;BME280;5911;51.036;6.972;2023-06-19T09:39:52;100494.97;;;24.27;70.07
11710;BME280;5911;51.036;6.972;2023-06-19T09:42:26;100480.47;;;24.15;68.86
11710;BME280;5911;51.036;6.972;2023-06-19T09:44:58;100489.78;;;24.19;67.40
11710;BME280;5911;51.036;6.972;2023-06-19T09:47:30;100494.56;;;24.17;67.49
11710;BME280;5911;51.036;6.972;2023-06-19T09:50:01;100491.25;;;24.15;67.10
11710;BME280;5911;51.036;6.972;2023-06-19T09:52:29;100484.78;;;24.23;68.07
11710;BME280;5911;51.036;6.972;2023-06-19T09:55:02;100489.91;;;24.37;68.16
11710;BME280;5911;51.036;6.972;2023-06-19T09:57:31;100496.16;;;24.31;67.42
11710;BME280;5911;51.036;6.972;2023-06-19T09:59:59;100502.06;;;24.46;68.75
11710;BME280;5911;51.036;6.972;2023-06-19T10:02:39;100492.78;;;24.42;67.42
11710;BME280;5911;51.036;6.972;2023-06-19T10:05:09;100503.50;;;24.49;66.96
11710;BME280;5911;51.036;6.972;2023-06-19T10:07:42;100503.34;;;24.44;66.11
11710;BME280;5911;51.036;6.972;2023-06-19T10:10:12;100495.00;;;24.45;66.90
11710;BME280;5911;51.036;6.972;2023-06-19T10:12:50;100498.94;;;24.49;66.01
11710;BME280;5911;51.036;6.972;2023-06-19T10:15:19;100500.59;;;24.50;65.80
11710;BME280;5911;51.036;6.972;2023-06-19T10:17:48;100507.19;;;24.54;66.92
11710;BME280;5911;51.036;6.972;2023-06-19T10:20:25;100496.72;;;24.65;66.43
11710;BME280;5911;51.036;6.972;2023-06-19T10:22:59;100490.59;;;24.58;64.55
11710;BME280;5911;51.036;6.972;2023-06-19T10:25:32;100486.78;;;24.65;65.27
11710;BME280;5911;51.036;6.972;2023-06-19T10:28:00;100501.41;;;24.76;65.12
11710;BME280;5911;51.036;6.972;2023-06-19T10:30:28;100477.91;;;24.83;63.29
11710;BME280;5911;51.036;6.972;2023-06-19T10:32:56;100498.16;;;24.92;62.27
11710;BME280;5911;51.036;6.972;2023-06-19T10:35:26;100494.78;;;25.03;62.17
11710;BME280;5911;51.036;6.972;2023-06-19T10:37:54;100504.81;;;25.14;62.18
11710;BME280;5911;51.036;6.972;2023-06-19T10:40:22;100505.88;;;25.13;61.70
11710;BME280;5911;51.036;6.972;2023-06-19T10:42:51;100492.91;;;25.22;61.27
11710;BME280;5911;51.036;6.972;2023-06-19T10:45:18;100495.97;;;25.26;60.66
11710;BME280;5911;51.036;6.972;2023-06-19T10:47:47;100491.47;;;25.56;60.47
11710;BME280;5911;51.036;6.972;2023-06-19T10:50:15;100494.13;;;25.81;58.89
11710;BME280;5911;51.036;6.972;2023-06-19T10:52:45;100491.00;;;26.25;56.62
11710;BME280;5911;51.036;6.972;2023-06-19T10:55:14;100501.81;;;26.67;55.95
11710;BME280;5911;51.036;6.972;2023-06-19T10:57:44;100494.66;;;26.73;54.58
11710;BME280;5911;51.036;6.972;2023-06-19T11:00:22;100496.53;;;27.07;56.04
11710;BME280;5911;51.036;6.972;2023-06-19T11:02:51;100494.16;;;27.46;55.25
11710;BME280;5911;51.036;6.972;2023-06-19T11:05:20;100493.09;;;27.47;53.06
11710;BME280;5911;51.036;6.972;2023-06-19T11:07:54;100491.09;;;27.42;53.00
11710;BME280;5911;51.036;6.972;2023-06-19T11:10:23;100491.31;;;27.41;51.76
11710;BME280;5911;51.036;6.972;2023-06-19T11:12:54;100497.69;;;27.58;51.41
11710;BME280;5911;51.036;6.972;2023-06-19T11:15:29;100484.25;;;27.91;50.62
11710;BME280;5911;51.036;6.972;2023-06-19T11:17:57;100489.84;;;28.30;49.86
11710;BME280;5911;51.036;6.972;2023-06-19T11:20:25;100493.16;;;28.32;48.69
11710;BME280;5911;51.036;6.972;2023-06-19T11:22:57;100490.94;;;28.29;48.77
11710;BME280;5911;51.036;6.972;2023-06-19T11:25:35;100478.94;;;28.25;49.20
11710;BME280;5911;51.036;6.972;2023-06-19T11:28:03;100489.53;;;28.60;48.90
11710;BME280;5911;51.036;6.972;2023-06-19T11:30:32;100493.66;;;28.62;48.16
11710;BME280;5911;51.036;6.972;2023-06-19T11:33:00;100481.72;;;28.30;48.13
11710;BME280;5911;51.036;6.972;2023-06-19T11:35:35;100477.94;;;27.74;49.51
11710;BME280;5911;51.036;6.972;2023-06-19T11:38:06;100468.88;;;27.80;50.62
11710;BME280;5911;51.036;6.972;2023-06-19T11:40:39;100473.09;;;28.33;49.88
11710;BME280;5911;51.036;6.972;2023-06-19T11:43:07;100478.09;;;28.75;49.08
11710;BME280;5911;51.036;6.972;2023-06-19T11:45:45;100480.81;;;29.08;47.71
11710;BME280;5911;51.036;6.972;2023-06-19T11:48:14;100482.66;;;29.02;47.38
11710;BME280;5911;51.036;6.972;2023-06-19T11:50:42;100475.81;;;29.00;47.06
11710;BME280;5911;51.036;6.972;2023-06-19T11:53:11;100475.88;;;29.44;47.37
11710;BME280;5911;51.036;6.972;2023-06-19T11:55:39;100480.16;;;29.83;46.89
11710;BME280;5911;51.036;6.972;2023-06-19T11:58:07;100484.91;;;29.93;45.31
11710;BME280;5911;51.036;6.972;2023-06-19T12:00:36;100486.00;;;30.19;45.44
11710;BME280;5911;51.036;6.972;2023-06-19T12:03:04;100493.06;;;29.93;44.11
11710;BME280;5911;51.036;6.972;2023-06-19T12:05:32;100488.63;;;29.65;43.87
11710;BME280;5911;51.036;6.972;2023-06-19T12:08:00;100495.47;;;29.67;43.51
11710;BME280;5911;51.036;6.972;2023-06-19T12:10:30;100491.50;;;29.75;43.10
11710;BME280;5911;51.036;6.972;2023-06-19T12:12:58;100488.88;;;29.85;43.82
11710;BME280;5911;51.036;6.972;2023-06-19T12:15:26;100466.59;;;29.88;43.62
11710;BME280;5911;51.036;6.972;2023-06-19T12:17:54;100497.38;;;30.16;43.29
11710;BME280;5911;51.036;6.972;2023-06-19T12:20:24;100489.28;;;30.21;43.46
11710;BME280;5911;51.036;6.972;2023-06-19T12:22:53;100478.56;;;30.41;42.67
11710;BME280;5911;51.036;6.972;2023-06-19T12:25:20;100479.44;;;30.78;42.39
11710;BME280;5911;51.036;6.972;2023-06-19T12:27:50;100478.81;;;30.66;41.56
11710;BME280;5911;51.036;6.972;2023-06-19T12:30:21;100486.03;;;31.25;41.28
11710;BME280;5911;51.036;6.972;2023-06-19T12:32:49;100478.47;;;31.42;40.93
11710;BME280;5911;51.036;6.972;2023-06-19T12:35:17;100490.69;;;30.92;41.26
11710;BME280;5911;51.036;6.972;2023-06-19T12:37:47;100484.28;;;30.71;41.68
11710;BME280;5911;51.036;6.972;2023-06-19T12:40:15;100483.72;;;30.37;42.27
11710;BME280;5911;51.036;6.972;2023-06-19T12:42:43;100472.44;;;30.24;42.94
11710;BME280;5911;51.036;6.972;2023-06-19T12:45:12;100476.88;;;30.35;42.68
11710;BME280;5911;51.036;6.972;2023-06-19T12:47:40;100479.88;;;30.33;43.01
11710;BME280;5911;51.036;6.972;2023-06-19T12:50:09;100483.63;;;30.54;42.89
11710;BME280;5911;51.036;6.972;2023-06-19T12:52:37;100485.66;;;30.42;42.34
11710;BME280;5911;51.036;6.972;2023-06-19T12:55:08;100486.69;;;30.36;43.10
11710;BME280;5911;51.036;6.972;2023-06-19T12:57:38;100477.69;;;30.03;42.80
11710;BME280;5911;51.036;6.972;2023-06-19T13:00:11;100484.81;;;29.88;43.53
11710;BME280;5911;51.036;6.972;2023-06-19T13:02:41;100475.34;;;29.90;43.37
11710;BME280;5911;51.036;6.972;2023-06-19T13:05:10;100469.72;;;29.75;43.39
11710;BME280;5911;51.036;6.972;2023-06-19T13:07:38;100469.09;;;29.68;43.45
11710;BME280;5911;51.036;6.972;2023-06-19T13:10:06;100465.53;;;29.62;44.10